createdAt,value
2019-03-31T00:02:09.429Z,41.57
2019-03-31T00:04:58.817Z,40.83
2019-03-31T00:07:48.660Z,43.20
2019-03-31T00:10:21.253Z,41.87
2019-03-31T00:13:11.385Z,42.30
2019-03-31T00:15:56.173Z,44.80
2019-03-31T00:18:45.690Z,44.93
2019-03-31T00:21:35.216Z,42.30
2019-03-31T00:24:24.317Z,45.87
2019-03-31T00:27:14.102Z,45.43
2019-03-31T00:30:04.061Z,40.97
2019-03-31T00:32:53.492Z,46.30
2019-03-31T00:35:43.271Z,37.50
2019-03-31T00:38:32.749Z,39.97
2019-03-31T00:41:22.508Z,38.77
2019-03-31T00:44:12.557Z,41.80
2019-03-31T00:47:02.310Z,41.43
2019-03-31T00:49:52.510Z,39.17
2019-03-31T00:52:42.133Z,42.03
2019-03-31T00:55:31.804Z,42.93
2019-03-31T00:58:20.847Z,38.40
2019-03-31T01:01:36.244Z,40.70
2019-03-31T01:04:22.695Z,43.13
2019-03-31T01:07:12.263Z,40.07
2019-03-31T01:10:02.081Z,43.97
2019-03-31T01:12:51.515Z,38.07
2019-03-31T01:15:41.510Z,43.07
2019-03-31T01:18:31.154Z,45.53
2019-03-31T01:21:20.577Z,44.77
2019-03-31T01:24:10.378Z,39.77
2019-03-31T01:26:59.909Z,46.43
2019-03-31T01:29:49.954Z,42.33
2019-03-31T01:32:39.864Z,41.87
2019-03-31T01:35:29.762Z,46.03
2019-03-31T01:38:19.590Z,44.27
2019-03-31T01:41:08.947Z,48.90
2019-03-31T01:43:58.649Z,44.67
2019-03-31T01:46:48.243Z,47.97
2019-03-31T01:49:37.809Z,47.47
2019-03-31T01:52:27.645Z,53.37
2019-03-31T01:55:17.234Z,54.57
2019-03-31T01:58:06.912Z,52.00
2019-03-31T02:00:59.685Z,52.03
2019-03-31T02:03:49.345Z,53.73
2019-03-31T02:06:39.248Z,50.03
2019-03-31T02:09:28.675Z,63.03
2019-03-31T02:12:17.890Z,56.20
2019-03-31T02:15:08.149Z,62.47
2019-03-31T02:17:57.937Z,66.30
2019-03-31T02:20:48.126Z,66.93
2019-03-31T02:23:38.119Z,63.87
2019-03-31T02:26:27.918Z,70.17
2019-03-31T02:29:17.094Z,69.57
2019-03-31T02:32:22.639Z,68.63
2019-03-31T02:34:57.842Z,77.00
2019-03-31T02:37:46.988Z,70.47
2019-03-31T02:40:36.823Z,78.33
2019-03-31T02:43:26.551Z,79.10
2019-03-31T02:46:16.088Z,77.00
2019-03-31T02:49:05.495Z,88.33
2019-03-31T02:51:54.941Z,82.07
2019-03-31T02:54:44.747Z,77.80
2019-03-31T02:57:34.633Z,74.93
2019-03-31T03:00:24.278Z,78.43
2019-03-31T03:03:19.895Z,76.90
2019-03-31T03:06:12.433Z,79.97
2019-03-31T03:09:06.217Z,78.47
2019-03-31T03:11:58.843Z,86.10
2019-03-31T03:14:50.291Z,80.43
2019-03-31T03:17:39.923Z,90.77
2019-03-31T03:20:28.971Z,78.73
2019-03-31T03:23:18.764Z,81.43
2019-03-31T03:26:08.415Z,84.30
2019-03-31T03:28:39.071Z,82.93
2019-03-31T03:31:28.415Z,76.83
2019-03-31T03:34:17.882Z,94.27
2019-03-31T03:37:07.081Z,85.57
2019-03-31T03:39:56.555Z,91.33
2019-03-31T03:42:46.788Z,85.40
2019-03-31T03:45:35.713Z,98.43
2019-03-31T03:48:25.308Z,94.73
2019-03-31T03:51:15.053Z,91.47
2019-03-31T03:54:04.856Z,96.47
2019-03-31T03:56:55.121Z,95.87
2019-03-31T03:59:44.729Z,101.77
2019-03-31T04:02:34.583Z,97.73
2019-03-31T04:05:23.881Z,92.63
2019-03-31T04:08:13.887Z,95.53
2019-03-31T04:11:26.113Z,99.40
2019-03-31T04:14:15.355Z,96.90
2019-03-31T04:17:04.723Z,98.17
2019-03-31T04:19:54.237Z,99.73
2019-03-31T04:22:44.022Z,110.40
2019-03-31T04:25:34.902Z,106.67
2019-03-31T04:28:20.734Z,101.33
2019-03-31T04:31:10.654Z,103.80
2019-03-31T04:34:00.198Z,110.57
2019-03-31T04:36:49.320Z,109.03
2019-03-31T04:39:39.337Z,105.40
2019-03-31T04:42:28.747Z,119.93
2019-03-31T04:45:18.390Z,108.80
2019-03-31T04:48:07.856Z,108.93
2019-03-31T04:50:56.921Z,123.10
2019-03-31T04:53:46.200Z,118.00
2019-03-31T04:56:36.083Z,111.90
2019-03-31T04:59:25.979Z,103.17
2019-03-31T05:02:16.115Z,119.20
2019-03-31T05:05:05.316Z,134.23
2019-03-31T05:07:55.277Z,117.53
2019-03-31T05:10:45.369Z,119.63
2019-03-31T05:13:35.063Z,126.87
2019-03-31T05:16:24.638Z,125.30
2019-03-31T05:19:14.363Z,131.10
2019-03-31T05:22:04.318Z,115.03
2019-03-31T05:24:54.048Z,112.70
2019-03-31T05:27:43.191Z,128.73
2019-03-31T05:30:32.563Z,120.47
2019-03-31T05:33:22.458Z,121.43
2019-03-31T05:36:12.238Z,129.90
2019-03-31T05:39:01.945Z,122.27
2019-03-31T05:41:52.098Z,127.77
2019-03-31T05:44:42.049Z,114.53
2019-03-31T05:47:31.959Z,121.40
2019-03-31T05:50:21.992Z,114.93
2019-03-31T05:53:11.554Z,123.83
2019-03-31T05:56:01.447Z,118.00
2019-03-31T05:58:50.480Z,123.23
2019-03-31T06:01:21.508Z,119.47
2019-03-31T06:04:11.106Z,115.40
2019-03-31T06:07:00.868Z,128.57
2019-03-31T06:09:50.349Z,122.57
2019-03-31T06:12:40.224Z,123.27
2019-03-31T06:15:29.760Z,122.83
2019-03-31T06:18:19.664Z,123.83
2019-03-31T06:21:09.396Z,128.67
2019-03-31T06:23:58.888Z,124.53
2019-03-31T06:26:48.731Z,120.40
2019-03-31T06:29:38.468Z,127.67
2019-03-31T06:32:28.165Z,116.77
2019-03-31T06:35:18.322Z,127.33
2019-03-31T06:38:08.251Z,114.77
2019-03-31T06:40:58.069Z,125.23
2019-03-31T06:43:47.807Z,114.23
2019-03-31T06:46:37.572Z,125.37
2019-03-31T06:49:27.461Z,111.53
2019-03-31T06:52:17.146Z,116.90
2019-03-31T06:55:07.050Z,115.57
2019-03-31T06:57:56.612Z,109.97
2019-03-31T07:00:46.490Z,109.60
2019-03-31T07:03:35.625Z,110.13
2019-03-31T07:06:26.043Z,106.57
2019-03-31T07:09:15.900Z,104.53
2019-03-31T07:12:05.683Z,96.73
2019-03-31T07:14:55.716Z,102.23
2019-03-31T07:17:45.322Z,87.40
2019-03-31T07:20:34.739Z,93.40
2019-03-31T07:23:24.174Z,82.93
2019-03-31T07:26:14.157Z,88.13
2019-03-31T07:29:03.828Z,82.53
2019-03-31T07:31:53.052Z,83.73
2019-03-31T07:34:43.043Z,83.10
2019-03-31T07:37:46.364Z,81.03
2019-03-31T07:40:24.245Z,83.73
2019-03-31T07:43:14.389Z,76.77
2019-03-31T07:46:04.313Z,79.30
2019-03-31T07:48:53.748Z,83.57
2019-03-31T07:51:43.552Z,80.50
2019-03-31T07:54:32.906Z,76.57
2019-03-31T07:57:22.955Z,78.33
2019-03-31T08:00:15.087Z,74.37
2019-03-31T08:03:04.655Z,79.33
2019-03-31T08:05:54.061Z,74.53
2019-03-31T08:08:43.954Z,76.27
2019-03-31T08:11:33.244Z,73.67
2019-03-31T08:14:22.611Z,78.83
2019-03-31T08:17:12.477Z,76.93
2019-03-31T08:20:01.781Z,84.27
2019-03-31T08:22:51.419Z,79.47
2019-03-31T08:25:41.195Z,80.20
2019-03-31T08:28:30.445Z,80.83
2019-03-31T08:31:19.743Z,80.90
2019-03-31T08:34:09.493Z,95.60
2019-03-31T08:36:59.331Z,99.77
2019-03-31T08:39:49.207Z,90.00
2019-03-31T08:42:38.878Z,99.20
2019-03-31T08:45:30.440Z,104.47
2019-03-31T08:48:19.159Z,99.27
2019-03-31T08:51:09.008Z,107.97
2019-03-31T08:53:59.046Z,112.10
2019-03-31T08:56:49.289Z,105.43
2019-03-31T08:59:39.117Z,104.33
2019-03-31T09:02:37.943Z,98.07
2019-03-31T09:05:27.687Z,105.00
2019-03-31T09:08:17.228Z,101.27
2019-03-31T09:11:07.040Z,101.70
2019-03-31T09:13:56.414Z,89.30
2019-03-31T09:16:46.269Z,98.00
2019-03-31T09:19:35.597Z,100.53
2019-03-31T09:22:25.422Z,93.70
2019-03-31T09:25:15.219Z,88.90
2019-03-31T09:28:05.188Z,99.50
2019-03-31T09:30:55.586Z,92.93
2019-03-31T09:33:45.849Z,106.67
2019-03-31T09:36:35.510Z,95.93
2019-03-31T09:39:25.138Z,93.47
2019-03-31T09:42:14.810Z,88.03
2019-03-31T09:45:04.386Z,87.83
2019-03-31T09:47:54.724Z,84.10
2019-03-31T09:50:44.264Z,84.93
2019-03-31T09:53:34.745Z,76.87
2019-03-31T09:56:24.185Z,79.83
2019-03-31T09:59:13.487Z,75.53
2019-03-31T10:02:02.798Z,70.90
2019-03-31T10:04:52.426Z,68.93
2019-03-31T10:07:41.800Z,67.23
2019-03-31T10:10:30.251Z,61.13
2019-03-31T10:13:20.562Z,62.00
2019-03-31T10:16:10.241Z,54.60
2019-03-31T10:18:59.380Z,58.47
2019-03-31T10:21:49.086Z,54.73
2019-03-31T10:24:38.659Z,51.80
2019-03-31T10:27:28.572Z,49.50
2019-03-31T10:30:25.299Z,53.90
2019-03-31T10:33:14.558Z,59.10
2019-03-31T10:36:04.838Z,48.63
2019-03-31T10:38:54.292Z,54.53
2019-03-31T10:41:44.544Z,46.10
2019-03-31T10:44:59.065Z,45.53
2019-03-31T10:47:48.361Z,54.30
2019-03-31T10:50:34.797Z,48.17
2019-03-31T10:53:24.413Z,47.50
2019-03-31T10:56:13.888Z,49.40
2019-03-31T10:59:03.132Z,48.83
2019-03-31T11:01:53.373Z,48.73
2019-03-31T11:04:43.238Z,48.03
2019-03-31T11:07:33.303Z,45.83
2019-03-31T11:10:23.436Z,39.73
2019-03-31T11:13:13.651Z,38.60
2019-03-31T11:16:03.055Z,38.47
2019-03-31T11:18:52.712Z,42.77
2019-03-31T11:21:57.221Z,40.30
2019-03-31T11:24:46.781Z,36.43
2019-03-31T11:27:36.925Z,43.63
2019-03-31T11:30:26.340Z,39.73
2019-03-31T11:33:15.597Z,44.17
2019-03-31T11:36:05.635Z,40.93
2019-03-31T11:38:55.185Z,37.77
2019-03-31T11:41:44.848Z,36.97
2019-03-31T11:44:15.665Z,37.10
2019-03-31T11:47:06.300Z,34.50
2019-03-31T11:49:54.994Z,39.10
2019-03-31T11:52:44.829Z,38.17
2019-03-31T11:55:34.851Z,31.50
2019-03-31T11:58:24.640Z,33.27
2019-03-31T12:01:14.356Z,30.07
2019-03-31T12:04:04.839Z,36.37
2019-03-31T12:06:54.566Z,36.10
2019-03-31T12:09:44.684Z,32.20
2019-03-31T12:12:34.407Z,31.20
2019-03-31T12:15:23.602Z,30.10
2019-03-31T12:18:13.137Z,28.60
2019-03-31T12:21:02.737Z,34.23
2019-03-31T12:23:52.420Z,34.60
2019-03-31T12:26:42.700Z,31.80
2019-03-31T12:29:32.434Z,37.43
2019-03-31T12:32:22.098Z,32.43
2019-03-31T12:35:12.077Z,28.50
2019-03-31T12:38:02.290Z,29.30
2019-03-31T12:40:52.025Z,32.47
2019-03-31T12:43:28.747Z,29.70
2019-03-31T12:46:18.348Z,34.80
2019-03-31T12:49:07.526Z,29.70
2019-03-31T12:51:57.231Z,27.33
2019-03-31T12:54:47.540Z,31.23
2019-03-31T12:57:37.198Z,27.60
2019-03-31T13:00:27.102Z,30.13
2019-03-31T13:03:16.971Z,29.83
2019-03-31T13:06:06.631Z,28.90
2019-03-31T13:08:56.123Z,26.70
2019-03-31T13:11:45.388Z,26.80
2019-03-31T13:14:29.871Z,28.33
2019-03-31T13:17:19.105Z,29.93
2019-03-31T13:20:09.345Z,25.67
2019-03-31T13:22:59.302Z,29.03
2019-03-31T13:25:49.094Z,26.43
2019-03-31T13:28:38.837Z,22.40
2019-03-31T13:31:28.287Z,24.27
2019-03-31T13:34:18.442Z,23.77
2019-03-31T13:37:08.046Z,23.50
2019-03-31T13:39:58.387Z,22.70
2019-03-31T13:42:47.562Z,24.20
2019-03-31T13:45:37.208Z,22.27
2019-03-31T13:48:26.626Z,19.90
2019-03-31T13:51:16.429Z,19.70
2019-03-31T13:54:05.936Z,23.70
2019-03-31T13:56:56.172Z,26.07
2019-03-31T13:59:46.140Z,19.67
2019-03-31T14:02:36.315Z,24.13
2019-03-31T14:05:25.789Z,21.13
2019-03-31T14:08:25.743Z,20.57
2019-03-31T14:11:06.409Z,18.80
2019-03-31T14:13:56.307Z,17.63
2019-03-31T14:16:46.347Z,15.63
2019-03-31T14:19:35.812Z,17.60
2019-03-31T14:22:25.386Z,18.00
2019-03-31T14:25:14.983Z,17.37
2019-03-31T14:28:04.579Z,16.67
2019-03-31T14:30:54.503Z,20.53
2019-03-31T14:33:44.069Z,19.70
2019-03-31T14:36:33.434Z,18.13
2019-03-31T14:39:23.212Z,18.70
2019-03-31T14:42:12.931Z,18.13
2019-03-31T14:45:02.309Z,16.60
2019-03-31T14:47:52.180Z,16.33
2019-03-31T14:50:42.584Z,15.57
2019-03-31T14:53:32.212Z,15.83
2019-03-31T14:56:21.814Z,19.47
2019-03-31T14:59:11.239Z,18.20
2019-03-31T15:02:01.487Z,17.93
2019-03-31T15:04:32.356Z,18.07
2019-03-31T15:07:03.092Z,19.57
2019-03-31T15:09:33.912Z,15.97
2019-03-31T15:12:04.463Z,22.70
2019-03-31T15:14:35.442Z,14.80
2019-03-31T15:17:06.896Z,21.33
2019-03-31T15:19:37.538Z,17.13
2019-03-31T15:22:08.361Z,16.87
2019-03-31T15:24:58.318Z,15.17
2019-03-31T15:27:47.581Z,13.63
2019-03-31T15:30:37.529Z,16.43
2019-03-31T15:33:27.503Z,19.40
2019-03-31T15:36:17.441Z,15.80
2019-03-31T15:39:09.501Z,13.30
2019-03-31T15:41:40.425Z,13.60
2019-03-31T15:44:11.583Z,12.70
2019-03-31T15:47:00.951Z,17.17
2019-03-31T15:49:50.456Z,14.20
2019-03-31T15:52:39.790Z,15.37
2019-03-31T15:55:29.202Z,13.60
2019-03-31T15:58:18.567Z,12.73
2019-03-31T16:01:07.834Z,14.30
2019-03-31T16:03:57.563Z,13.70
2019-03-31T16:06:47.261Z,13.10
2019-03-31T16:09:36.542Z,11.43
2019-03-31T16:12:25.909Z,13.20
2019-03-31T16:15:15.903Z,14.53
2019-03-31T16:18:05.646Z,13.03
2019-03-31T16:20:54.428Z,13.80
2019-03-31T16:23:43.794Z,12.30
2019-03-31T16:26:32.890Z,10.87
2019-03-31T16:29:22.142Z,10.90
2019-03-31T16:32:11.122Z,11.67
2019-03-31T16:35:00.457Z,10.97
2019-03-31T16:37:49.749Z,10.07
2019-03-31T16:40:38.572Z,16.30
2019-03-31T16:43:27.416Z,10.40
2019-03-31T16:46:16.737Z,10.60
2019-03-31T16:49:05.668Z,8.93
2019-03-31T16:51:54.942Z,10.90
2019-03-31T16:54:44.485Z,9.47
2019-03-31T16:57:29.960Z,12.03
2019-03-31T17:00:00.268Z,10.50
2019-03-31T17:02:50.616Z,8.60
2019-03-31T17:05:40.143Z,12.00
2019-03-31T17:08:29.586Z,10.80
2019-03-31T17:11:19.899Z,9.50
2019-03-31T17:14:09.036Z,12.33
2019-03-31T17:16:57.861Z,9.30
2019-03-31T17:19:46.776Z,11.03
2019-03-31T17:22:36.074Z,14.53
2019-03-31T17:25:25.548Z,8.87
2019-03-31T17:28:15.021Z,11.80
2019-03-31T17:30:48.760Z,11.70
2019-03-31T17:33:37.868Z,9.13
2019-03-31T17:36:26.926Z,8.97
2019-03-31T17:39:16.104Z,9.03
2019-03-31T17:42:04.512Z,12.57
2019-03-31T17:44:53.541Z,13.33
2019-03-31T17:47:42.607Z,9.60
2019-03-31T17:50:32.039Z,14.20
2019-03-31T17:53:20.943Z,11.43
2019-03-31T17:56:10.074Z,13.50
2019-03-31T17:58:59.729Z,12.70
2019-03-31T18:01:49.032Z,11.73
2019-03-31T18:04:38.475Z,12.20
2019-03-31T18:07:27.888Z,11.37
2019-03-31T18:10:21.071Z,12.37
2019-03-31T18:13:08.222Z,13.27
2019-03-31T18:15:57.117Z,9.40
2019-03-31T18:18:45.894Z,16.83
2019-03-31T18:21:35.078Z,12.87
2019-03-31T18:24:24.263Z,11.40
2019-03-31T18:27:13.673Z,10.70
2019-03-31T18:30:02.829Z,12.30
2019-03-31T18:32:52.013Z,16.00
2019-03-31T18:35:41.312Z,9.27
2019-03-31T18:38:31.186Z,14.00
2019-03-31T18:41:20.350Z,13.23
2019-03-31T18:44:09.459Z,12.47
2019-03-31T18:46:58.359Z,11.50
2019-03-31T18:49:47.667Z,11.33
2019-03-31T18:52:36.773Z,13.50
2019-03-31T18:55:47.647Z,13.60
2019-03-31T18:58:46.402Z,13.00
2019-03-31T19:01:53.322Z,13.40
2019-03-31T19:05:07.651Z,9.70
2019-03-31T19:08:25.675Z,9.80
2019-03-31T19:11:38.908Z,14.47
2019-03-31T19:15:02.144Z,9.73
2019-03-31T19:18:19.439Z,9.47
2019-03-31T19:21:28.545Z,12.27
2019-03-31T19:24:41.234Z,12.50
2019-03-31T19:27:29.857Z,14.83
2019-03-31T19:30:40.807Z,9.67
2019-03-31T19:34:06.662Z,9.43
2019-03-31T19:37:13.044Z,10.20
2019-03-31T19:40:14.135Z,12.07
2019-03-31T19:43:27.797Z,6.03
2019-03-31T19:46:36.498Z,13.43
2019-03-31T19:49:47.898Z,16.80
2019-03-31T19:52:53.811Z,14.93
2019-03-31T19:56:07.753Z,12.63
2019-03-31T19:59:11.450Z,15.87
2019-03-31T20:02:11.991Z,9.03
2019-03-31T20:05:23.871Z,8.97
2019-03-31T20:08:27.387Z,9.40
2019-03-31T20:11:35.162Z,8.60
2019-03-31T20:14:58.725Z,10.13
2019-03-31T20:18:01.597Z,11.87
2019-03-31T20:21:00.535Z,16.87
2019-03-31T20:24:01.604Z,8.70
2019-03-31T20:26:57.185Z,10.83
2019-03-31T20:30:03.938Z,8.27
2019-03-31T20:33:07.385Z,15.43
2019-03-31T20:36:31.726Z,11.67
2019-03-31T20:39:32.470Z,10.30
2019-03-31T20:42:32.150Z,14.13
2019-03-31T20:45:21.640Z,10.20
2019-03-31T20:48:10.773Z,12.67
2019-03-31T20:51:00.913Z,6.17
2019-03-31T20:53:49.955Z,9.83
2019-03-31T20:56:39.208Z,14.03
2019-03-31T20:59:28.545Z,8.97
2019-03-31T21:02:17.874Z,14.97
2019-03-31T21:05:07.036Z,9.03
2019-03-31T21:07:56.285Z,10.00
2019-03-31T21:10:45.843Z,7.90
2019-03-31T21:13:35.443Z,16.03
2019-03-31T21:16:24.901Z,7.43
2019-03-31T21:19:01.410Z,23.47
2019-03-31T21:21:50.967Z,9.30
2019-03-31T21:24:40.418Z,13.30
2019-03-31T21:27:29.373Z,7.13
2019-03-31T21:30:18.837Z,11.47
2019-03-31T21:33:08.027Z,14.70
2019-03-31T21:35:57.346Z,10.90
2019-03-31T21:38:27.407Z,11.63
2019-03-31T21:41:17.091Z,10.90
2019-03-31T21:44:06.253Z,9.83
2019-03-31T21:46:56.122Z,14.70
2019-03-31T21:49:45.591Z,10.33
2019-03-31T21:52:34.134Z,9.70
2019-03-31T21:55:23.628Z,9.60
2019-03-31T21:58:13.083Z,9.37
2019-03-31T22:01:02.494Z,12.53
2019-03-31T22:03:51.894Z,6.50
2019-03-31T22:06:41.081Z,6.20
2019-03-31T22:09:30.054Z,9.67
2019-03-31T22:12:19.232Z,13.03
2019-03-31T22:15:08.552Z,11.30
2019-03-31T22:17:57.633Z,11.20
2019-03-31T22:20:47.490Z,7.10
2019-03-31T22:23:36.951Z,7.43
2019-03-31T22:26:26.090Z,8.47
2019-03-31T22:29:15.660Z,10.57
2019-03-31T22:32:05.020Z,9.00
2019-03-31T22:34:54.056Z,9.30
2019-03-31T22:37:42.629Z,9.83
2019-03-31T22:40:31.898Z,8.07
2019-03-31T22:43:20.945Z,10.80
2019-03-31T22:46:10.041Z,5.00
2019-03-31T22:48:59.104Z,7.93
2019-03-31T22:51:48.162Z,7.83
2019-03-31T22:54:36.991Z,14.03
2019-03-31T22:57:26.465Z,6.73
2019-03-31T23:00:21.675Z,10.33
2019-03-31T23:03:10.178Z,6.77
2019-03-31T23:05:59.402Z,7.60
2019-03-31T23:08:48.581Z,9.67
2019-03-31T23:11:37.736Z,12.37
2019-03-31T23:14:26.786Z,13.40
2019-03-31T23:17:15.831Z,7.50
2019-03-31T23:20:05.166Z,9.97
2019-03-31T23:22:54.572Z,7.67
2019-03-31T23:25:43.805Z,8.97
2019-03-31T23:28:32.742Z,7.27
2019-03-31T23:31:21.348Z,12.67
2019-03-31T23:34:10.679Z,10.13
2019-03-31T23:36:59.364Z,8.80
2019-03-31T23:39:48.649Z,10.60
2019-03-31T23:42:37.674Z,12.70
2019-03-31T23:45:26.688Z,11.47
2019-03-31T23:48:15.930Z,6.37
2019-03-31T23:51:05.168Z,18.50
2019-03-31T23:53:54.364Z,11.00
2019-03-31T23:56:43.546Z,7.17
2019-03-31T23:59:32.456Z,11.07
